sensor_id;sensor_type;location;lat;lon;timestamp;P1;durP1;ratioP1;P2;durP2;ratioP2
79145;SDS011;68792;53.338;-1.502;2023-05-13T00:02:13;2.35;;;1.77;;
79145;SDS011;68792;53.338;-1.502;2023-05-13T00:04:39;2.50;;;1.42;;
79145;SDS011;68792;53.338;-1.502;2023-05-13T00:07:04;2.00;;;1.30;;
79145;SDS011;68792;53.338;-1.502;2023-05-13T00:09:29;2.60;;;1.17;;
79145;SDS011;68792;53.338;-1.502;2023-05-13T00:11:55;1.85;;;1.35;;
79145;SDS011;68792;53.338;-1.502;2023-05-13T00:14:20;2.35;;;1.50;;
79145;SDS011;68792;53.338;-1.502;2023-05-13T00:16:46;2.65;;;1.42;;
79145;SDS011;68792;53.338;-1.502;2023-05-13T00:19:11;2.70;;;1.30;;
79145;SDS011;68792;53.338;-1.502;2023-05-13T00:21:37;2.10;;;1.38;;
79145;SDS011;68792;53.338;-1.502;2023-05-13T00:24:03;2.08;;;1.35;;
79145;SDS011;68792;53.338;-1.502;2023-05-13T00:26:29;2.78;;;1.48;;
79145;SDS011;68792;53.338;-1.502;2023-05-13T00:28:54;1.80;;;1.48;;
79145;SDS011;68792;53.338;-1.502;2023-05-13T00:31:19;1.50;;;1.17;;
79145;SDS011;68792;53.338;-1.502;2023-05-13T00:33:45;2.75;;;1.60;;
79145;SDS011;68792;53.338;-1.502;2023-05-13T00:36:10;2.25;;;1.42;;
79145;SDS011;68792;53.338;-1.502;2023-05-13T00:38:36;2.05;;;1.35;;
79145;SDS011;68792;53.338;-1.502;2023-05-13T00:41:02;2.33;;;2.00;;
79145;SDS011;68792;53.338;-1.502;2023-05-13T00:43:28;1.83;;;1.20;;
79145;SDS011;68792;53.338;-1.502;2023-05-13T00:45:53;2.03;;;1.48;;
79145;SDS011;68792;53.338;-1.502;2023-05-13T00:48:19;1.95;;;1.50;;
79145;SDS011;68792;53.338;-1.502;2023-05-13T00:50:45;1.90;;;1.50;;
79145;SDS011;68792;53.338;-1.502;2023-05-13T00:53:12;1.63;;;1.45;;
79145;SDS011;68792;53.338;-1.502;2023-05-13T00:55:41;1.63;;;1.40;;
79145;SDS011;68792;53.338;-1.502;2023-05-13T00:58:08;2.60;;;1.45;;
79145;SDS011;68792;53.338;-1.502;2023-05-13T01:00:58;1.60;;;1.30;;
79145;SDS011;68792;53.338;-1.502;2023-05-13T01:06:39;2.92;;;2.00;;
79145;SDS011;68792;53.338;-1.502;2023-05-13T01:11:50;2.05;;;1.67;;
79145;SDS011;68792;53.338;-1.502;2023-05-13T01:14:24;1.77;;;1.27;;
79145;SDS011;68792;53.338;-1.502;2023-05-13T01:16:56;3.50;;;1.40;;
79145;SDS011;68792;53.338;-1.502;2023-05-13T01:19:34;1.98;;;1.35;;
79145;SDS011;68792;53.338;-1.502;2023-05-13T01:22:03;2.95;;;1.70;;
79145;SDS011;68792;53.338;-1.502;2023-05-13T01:24:29;2.53;;;1.70;;
79145;SDS011;68792;53.338;-1.502;2023-05-13T01:27:01;2.53;;;1.35;;
79145;SDS011;68792;53.338;-1.502;2023-05-13T01:29:42;1.80;;;1.55;;
79145;SDS011;68792;53.338;-1.502;2023-05-13T01:32:08;1.63;;;1.52;;
79145;SDS011;68792;53.338;-1.502;2023-05-13T01:36:59;2.20;;;1.30;;
79145;SDS011;68792;53.338;-1.502;2023-05-13T01:39:25;1.27;;;1.13;;
79145;SDS011;68792;53.338;-1.502;2023-05-13T01:41:50;1.67;;;1.30;;
79145;SDS011;68792;53.338;-1.502;2023-05-13T01:44:16;1.88;;;1.50;;
79145;SDS011;68792;53.338;-1.502;2023-05-13T01:46:42;1.92;;;1.20;;
79145;SDS011;68792;53.338;-1.502;2023-05-13T01:49:08;2.10;;;1.30;;
79145;SDS011;68792;53.338;-1.502;2023-05-13T01:51:34;2.10;;;1.63;;
79145;SDS011;68792;53.338;-1.502;2023-05-13T01:54:02;1.52;;;1.13;;
79145;SDS011;68792;53.338;-1.502;2023-05-13T01:58:53;1.70;;;1.30;;
79145;SDS011;68792;53.338;-1.502;2023-05-13T02:01:18;1.58;;;1.20;;
79145;SDS011;68792;53.338;-1.502;2023-05-13T02:03:44;2.42;;;1.23;;
79145;SDS011;68792;53.338;-1.502;2023-05-13T02:06:09;3.58;;;1.70;;
79145;SDS011;68792;53.338;-1.502;2023-05-13T02:08:34;1.35;;;1.05;;
79145;SDS011;68792;53.338;-1.502;2023-05-13T02:11:00;1.42;;;1.15;;
79145;SDS011;68792;53.338;-1.502;2023-05-13T02:13:25;1.42;;;1.20;;
79145;SDS011;68792;53.338;-1.502;2023-05-13T02:15:52;2.17;;;1.33;;
79145;SDS011;68792;53.338;-1.502;2023-05-13T02:18:17;1.70;;;1.38;;
79145;SDS011;68792;53.338;-1.502;2023-05-13T02:20:43;1.67;;;1.30;;
79145;SDS011;68792;53.338;-1.502;2023-05-13T02:25:35;1.90;;;1.25;;
79145;SDS011;68792;53.338;-1.502;2023-05-13T02:28:00;1.65;;;1.13;;
79145;SDS011;68792;53.338;-1.502;2023-05-13T02:30:26;2.30;;;1.33;;
79145;SDS011;68792;53.338;-1.502;2023-05-13T02:32:52;2.15;;;1.38;;
79145;SDS011;68792;53.338;-1.502;2023-05-13T02:35:19;2.83;;;1.63;;
79145;SDS011;68792;53.338;-1.502;2023-05-13T02:37:46;1.85;;;1.50;;
79145;SDS011;68792;53.338;-1.502;2023-05-13T02:40:12;2.63;;;1.77;;
79145;SDS011;68792;53.338;-1.502;2023-05-13T02:42:37;2.33;;;1.70;;
79145;SDS011;68792;53.338;-1.502;2023-05-13T02:45:03;2.90;;;1.92;;
79145;SDS011;68792;53.338;-1.502;2023-05-13T02:47:28;1.65;;;1.35;;
79145;SDS011;68792;53.338;-1.502;2023-05-13T02:49:55;1.65;;;1.48;;
79145;SDS011;68792;53.338;-1.502;2023-05-13T02:52:20;2.00;;;1.58;;
79145;SDS011;68792;53.338;-1.502;2023-05-13T02:54:46;2.03;;;1.67;;
79145;SDS011;68792;53.338;-1.502;2023-05-13T02:57:11;2.22;;;1.60;;
79145;SDS011;68792;53.338;-1.502;2023-05-13T02:59:36;2.45;;;1.70;;
79145;SDS011;68792;53.338;-1.502;2023-05-13T03:02:02;1.67;;;1.25;;
79145;SDS011;68792;53.338;-1.502;2023-05-13T03:04:27;1.50;;;1.20;;
79145;SDS011;68792;53.338;-1.502;2023-05-13T03:06:53;1.58;;;1.40;;
79145;SDS011;68792;53.338;-1.502;2023-05-13T03:09:18;1.73;;;1.30;;
79145;SDS011;68792;53.338;-1.502;2023-05-13T03:11:44;2.85;;;1.52;;
79145;SDS011;68792;53.338;-1.502;2023-05-13T03:14:09;1.63;;;1.42;;
79145;SDS011;68792;53.338;-1.502;2023-05-13T03:16:35;1.80;;;1.45;;
79145;SDS011;68792;53.338;-1.502;2023-05-13T03:19:00;1.73;;;1.30;;
79145;SDS011;68792;53.338;-1.502;2023-05-13T03:21:25;1.60;;;0.90;;
79145;SDS011;68792;53.338;-1.502;2023-05-13T03:23:52;1.45;;;1.20;;
79145;SDS011;68792;53.338;-1.502;2023-05-13T03:26:17;1.65;;;1.23;;
79145;SDS011;68792;53.338;-1.502;2023-05-13T03:28:43;1.73;;;1.48;;
79145;SDS011;68792;53.338;-1.502;2023-05-13T03:31:08;1.63;;;1.38;;
79145;SDS011;68792;53.338;-1.502;2023-05-13T03:33:33;2.50;;;1.35;;
79145;SDS011;68792;53.338;-1.502;2023-05-13T03:35:59;1.40;;;1.30;;
79145;SDS011;68792;53.338;-1.502;2023-05-13T03:38:24;2.58;;;1.40;;
79145;SDS011;68792;53.338;-1.502;2023-05-13T03:40:50;2.15;;;1.23;;
79145;SDS011;68792;53.338;-1.502;2023-05-13T03:43:15;1.48;;;1.13;;
79145;SDS011;68792;53.338;-1.502;2023-05-13T03:45:40;1.75;;;1.30;;
79145;SDS011;68792;53.338;-1.502;2023-05-13T03:48:06;2.00;;;1.20;;
79145;SDS011;68792;53.338;-1.502;2023-05-13T03:50:31;1.73;;;1.33;;
79145;SDS011;68792;53.338;-1.502;2023-05-13T03:52:56;2.00;;;1.13;;
79145;SDS011;68792;53.338;-1.502;2023-05-13T03:55:22;1.35;;;1.25;;
79145;SDS011;68792;53.338;-1.502;2023-05-13T03:57:48;1.55;;;1.40;;
79145;SDS011;68792;53.338;-1.502;2023-05-13T04:00:14;2.13;;;1.48;;
79145;SDS011;68792;53.338;-1.502;2023-05-13T04:02:40;1.90;;;1.60;;
79145;SDS011;68792;53.338;-1.502;2023-05-13T04:05:05;1.40;;;1.30;;
79145;SDS011;68792;53.338;-1.502;2023-05-13T04:07:31;1.98;;;1.35;;
79145;SDS011;68792;53.338;-1.502;2023-05-13T04:09:57;1.45;;;1.35;;
79145;SDS011;68792;53.338;-1.502;2023-05-13T04:12:22;1.27;;;1.17;;
79145;SDS011;68792;53.338;-1.502;2023-05-13T04:14:47;1.98;;;1.20;;
79145;SDS011;68792;53.338;-1.502;2023-05-13T04:17:13;1.85;;;1.70;;
79145;SDS011;68792;53.338;-1.502;2023-05-13T04:19:38;2.00;;;1.55;;
79145;SDS011;68792;53.338;-1.502;2023-05-13T04:22:04;2.35;;;1.58;;
79145;SDS011;68792;53.338;-1.502;2023-05-13T04:24:29;2.13;;;1.77;;
79145;SDS011;68792;53.338;-1.502;2023-05-13T04:26:54;2.17;;;1.60;;
79145;SDS011;68792;53.338;-1.502;2023-05-13T04:29:20;1.48;;;1.30;;
79145;SDS011;68792;53.338;-1.502;2023-05-13T04:31:45;2.00;;;1.38;;
79145;SDS011;68792;53.338;-1.502;2023-05-13T04:34:11;2.35;;;1.85;;
79145;SDS011;68792;53.338;-1.502;2023-05-13T04:36:37;1.70;;;1.60;;
79145;SDS011;68792;53.338;-1.502;2023-05-13T04:39:02;1.40;;;1.30;;
79145;SDS011;68792;53.338;-1.502;2023-05-13T04:41:28;1.67;;;1.50;;
79145;SDS011;68792;53.338;-1.502;2023-05-13T04:43:53;1.50;;;1.23;;
79145;SDS011;68792;53.338;-1.502;2023-05-13T04:46:18;1.90;;;1.50;;
79145;SDS011;68792;53.338;-1.502;2023-05-13T04:48:44;2.72;;;1.55;;
79145;SDS011;68792;53.338;-1.502;2023-05-13T04:51:12;2.03;;;1.40;;
79145;SDS011;68792;53.338;-1.502;2023-05-13T04:53:39;1.48;;;1.23;;
79145;SDS011;68792;53.338;-1.502;2023-05-13T04:56:04;2.70;;;1.60;;
79145;SDS011;68792;53.338;-1.502;2023-05-13T04:58:30;1.63;;;1.52;;
79145;SDS011;68792;53.338;-1.502;2023-05-13T05:00:55;2.20;;;1.67;;
79145;SDS011;68792;53.338;-1.502;2023-05-13T05:03:21;1.45;;;1.35;;
79145;SDS011;68792;53.338;-1.502;2023-05-13T05:05:47;2.65;;;1.75;;
79145;SDS011;68792;53.338;-1.502;2023-05-13T05:08:12;2.42;;;1.60;;
79145;SDS011;68792;53.338;-1.502;2023-05-13T05:10:38;2.00;;;1.60;;
79145;SDS011;68792;53.338;-1.502;2023-05-13T05:13:03;2.05;;;1.50;;
79145;SDS011;68792;53.338;-1.502;2023-05-13T05:15:29;1.65;;;1.20;;
79145;SDS011;68792;53.338;-1.502;2023-05-13T05:17:54;1.90;;;1.60;;
79145;SDS011;68792;53.338;-1.502;2023-05-13T05:22:48;1.92;;;1.63;;
79145;SDS011;68792;53.338;-1.502;2023-05-13T05:25:14;1.95;;;1.58;;
79145;SDS011;68792;53.338;-1.502;2023-05-13T05:27:40;2.38;;;1.88;;
79145;SDS011;68792;53.338;-1.502;2023-05-13T05:30:05;2.47;;;1.75;;
79145;SDS011;68792;53.338;-1.502;2023-05-13T05:32:33;2.58;;;1.63;;
79145;SDS011;68792;53.338;-1.502;2023-05-13T05:34:58;2.70;;;1.85;;
79145;SDS011;68792;53.338;-1.502;2023-05-13T05:37:26;2.38;;;1.88;;
79145;SDS011;68792;53.338;-1.502;2023-05-13T05:39:52;1.92;;;1.50;;
79145;SDS011;68792;53.338;-1.502;2023-05-13T05:42:17;1.92;;;1.80;;
79145;SDS011;68792;53.338;-1.502;2023-05-13T05:44:43;2.33;;;1.83;;
79145;SDS011;68792;53.338;-1.502;2023-05-13T05:47:08;2.22;;;1.58;;
79145;SDS011;68792;53.338;-1.502;2023-05-13T05:49:33;2.20;;;1.60;;
79145;SDS011;68792;53.338;-1.502;2023-05-13T05:51:59;2.00;;;1.33;;
79145;SDS011;68792;53.338;-1.502;2023-05-13T05:54:24;2.28;;;1.75;;
79145;SDS011;68792;53.338;-1.502;2023-05-13T05:56:50;1.67;;;1.45;;
79145;SDS011;68792;53.338;-1.502;2023-05-13T05:59:15;1.88;;;1.40;;
79145;SDS011;68792;53.338;-1.502;2023-05-13T06:01:41;1.95;;;1.75;;
79145;SDS011;68792;53.338;-1.502;2023-05-13T06:04:06;2.30;;;2.10;;
79145;SDS011;68792;53.338;-1.502;2023-05-13T06:06:31;2.40;;;2.05;;
79145;SDS011;68792;53.338;-1.502;2023-05-13T06:08:57;2.30;;;1.75;;
79145;SDS011;68792;53.338;-1.502;2023-05-13T06:11:23;2.40;;;1.60;;
79145;SDS011;68792;53.338;-1.502;2023-05-13T06:13:48;2.35;;;1.80;;
79145;SDS011;68792;53.338;-1.502;2023-05-13T06:16:15;1.80;;;1.48;;
79145;SDS011;68792;53.338;-1.502;2023-05-13T06:18:40;2.63;;;2.00;;
79145;SDS011;68792;53.338;-1.502;2023-05-13T06:21:06;1.63;;;1.52;;
79145;SDS011;68792;53.338;-1.502;2023-05-13T06:23:31;1.65;;;1.50;;
79145;SDS011;68792;53.338;-1.502;2023-05-13T06:25:57;1.50;;;1.40;;
79145;SDS011;68792;53.338;-1.502;2023-05-13T06:30:48;1.83;;;1.67;;
79145;SDS011;68792;53.338;-1.502;2023-05-13T06:33:14;2.22;;;1.60;;
79145;SDS011;68792;53.338;-1.502;2023-05-13T06:35:40;1.55;;;1.45;;
79145;SDS011;68792;53.338;-1.502;2023-05-13T06:38:05;2.17;;;1.83;;
79145;SDS011;68792;53.338;-1.502;2023-05-13T06:40:30;1.83;;;1.52;;
79145;SDS011;68792;53.338;-1.502;2023-05-13T06:42:56;2.17;;;1.67;;
79145;SDS011;68792;53.338;-1.502;2023-05-13T06:45:21;2.25;;;1.55;;
79145;SDS011;68792;53.338;-1.502;2023-05-13T06:47:51;1.92;;;1.70;;
79145;SDS011;68792;53.338;-1.502;2023-05-13T06:50:17;1.50;;;1.40;;
79145;SDS011;68792;53.338;-1.502;2023-05-13T06:52:43;2.15;;;1.30;;
79145;SDS011;68792;53.338;-1.502;2023-05-13T06:55:08;1.98;;;1.77;;
79145;SDS011;68792;53.338;-1.502;2023-05-13T06:57:34;2.00;;;1.80;;
79145;SDS011;68792;53.338;-1.502;2023-05-13T07:00:00;1.65;;;1.33;;
79145;SDS011;68792;53.338;-1.502;2023-05-13T07:02:25;2.58;;;1.77;;
79145;SDS011;68792;53.338;-1.502;2023-05-13T07:04:51;2.60;;;1.80;;
79145;SDS011;68792;53.338;-1.502;2023-05-13T07:07:17;3.50;;;1.50;;
79145;SDS011;68792;53.338;-1.502;2023-05-13T07:09:42;2.65;;;1.20;;
79145;SDS011;68792;53.338;-1.502;2023-05-13T07:12:08;4.57;;;1.70;;
79145;SDS011;68792;53.338;-1.502;2023-05-13T07:14:35;1.63;;;1.35;;
79145;SDS011;68792;53.338;-1.502;2023-05-13T07:19:27;4.30;;;1.50;;
79145;SDS011;68792;53.338;-1.502;2023-05-13T07:21:53;2.42;;;1.50;;
79145;SDS011;68792;53.338;-1.502;2023-05-13T07:24:18;6.47;;;2.58;;
79145;SDS011;68792;53.338;-1.502;2023-05-13T07:26:43;6.32;;;1.20;;
79145;SDS011;68792;53.338;-1.502;2023-05-13T07:29:09;1.95;;;1.25;;
79145;SDS011;68792;53.338;-1.502;2023-05-13T07:31:34;1.70;;;1.38;;
79145;SDS011;68792;53.338;-1.502;2023-05-13T07:34:00;3.13;;;1.65;;
79145;SDS011;68792;53.338;-1.502;2023-05-13T07:36:25;2.28;;;1.48;;
79145;SDS011;68792;53.338;-1.502;2023-05-13T07:38:51;1.25;;;1.10;;
79145;SDS011;68792;53.338;-1.502;2023-05-13T07:41:17;1.15;;;1.05;;
79145;SDS011;68792;53.338;-1.502;2023-05-13T07:43:46;1.45;;;1.35;;
79145;SDS011;68792;53.338;-1.502;2023-05-13T07:46:12;2.03;;;1.40;;
79145;SDS011;68792;53.338;-1.502;2023-05-13T07:48:37;1.80;;;1.23;;
79145;SDS011;68792;53.338;-1.502;2023-05-13T07:51:03;1.65;;;1.20;;
79145;SDS011;68792;53.338;-1.502;2023-05-13T07:53:29;1.30;;;1.15;;
79145;SDS011;68792;53.338;-1.502;2023-05-13T07:55:54;1.33;;;1.23;;
79145;SDS011;68792;53.338;-1.502;2023-05-13T07:58:20;2.08;;;1.42;;
79145;SDS011;68792;53.338;-1.502;2023-05-13T08:00:45;2.83;;;1.30;;
79145;SDS011;68792;53.338;-1.502;2023-05-13T08:03:11;2.13;;;1.70;;
79145;SDS011;68792;53.338;-1.502;2023-05-13T08:05:36;1.35;;;1.20;;
79145;SDS011;68792;53.338;-1.502;2023-05-13T08:08:02;2.33;;;1.30;;
79145;SDS011;68792;53.338;-1.502;2023-05-13T08:10:28;1.85;;;1.58;;
79145;SDS011;68792;53.338;-1.502;2023-05-13T08:12:54;1.20;;;1.10;;
79145;SDS011;68792;53.338;-1.502;2023-05-13T08:15:21;1.25;;;1.15;;
79145;SDS011;68792;53.338;-1.502;2023-05-13T08:17:47;2.35;;;1.42;;
79145;SDS011;68792;53.338;-1.502;2023-05-13T08:20:13;2.33;;;1.45;;
79145;SDS011;68792;53.338;-1.502;2023-05-13T08:22:39;1.67;;;1.20;;
79145;SDS011;68792;53.338;-1.502;2023-05-13T08:25:05;2.03;;;1.30;;
79145;SDS011;68792;53.338;-1.502;2023-05-13T08:27:30;1.40;;;1.30;;
79145;SDS011;68792;53.338;-1.502;2023-05-13T08:29:56;1.80;;;1.40;;
79145;SDS011;68792;53.338;-1.502;2023-05-13T08:32:21;1.42;;;1.33;;
79145;SDS011;68792;53.338;-1.502;2023-05-13T08:34:46;1.73;;;1.33;;
79145;SDS011;68792;53.338;-1.502;2023-05-13T08:37:12;1.83;;;1.40;;
79145;SDS011;68792;53.338;-1.502;2023-05-13T08:39:40;1.75;;;1.38;;
79145;SDS011;68792;53.338;-1.502;2023-05-13T08:42:06;1.88;;;1.77;;
79145;SDS011;68792;53.338;-1.502;2023-05-13T08:47:03;2.15;;;1.40;;
79145;SDS011;68792;53.338;-1.502;2023-05-13T08:49:36;1.90;;;1.10;;
79145;SDS011;68792;53.338;-1.502;2023-05-13T08:52:02;1.67;;;1.40;;
79145;SDS011;68792;53.338;-1.502;2023-05-13T08:54:31;1.73;;;1.15;;
79145;SDS011;68792;53.338;-1.502;2023-05-13T08:56:57;2.15;;;1.30;;
79145;SDS011;68792;53.338;-1.502;2023-05-13T08:59:22;1.65;;;1.50;;
79145;SDS011;68792;53.338;-1.502;2023-05-13T09:01:48;2.45;;;1.30;;
79145;SDS011;68792;53.338;-1.502;2023-05-13T09:04:15;1.92;;;1.38;;
79145;SDS011;68792;53.338;-1.502;2023-05-13T09:06:40;1.52;;;1.42;;
79145;SDS011;68792;53.338;-1.502;2023-05-13T09:09:11;1.88;;;1.60;;
79145;SDS011;68792;53.338;-1.502;2023-05-13T09:11:37;1.65;;;1.40;;
79145;SDS011;68792;53.338;-1.502;2023-05-13T09:14:04;2.83;;;1.50;;
79145;SDS011;68792;53.338;-1.502;2023-05-13T09:16:31;2.35;;;1.42;;
79145;SDS011;68792;53.338;-1.502;2023-05-13T09:18:58;1.55;;;1.45;;
79145;SDS011;68792;53.338;-1.502;2023-05-13T09:21:25;2.13;;;1.23;;
79145;SDS011;68792;53.338;-1.502;2023-05-13T09:24:00;1.42;;;1.10;;
79145;SDS011;68792;53.338;-1.502;2023-05-13T09:26:28;1.70;;;1.60;;
79145;SDS011;68792;53.338;-1.502;2023-05-13T09:31:46;1.70;;;1.42;;
79145;SDS011;68792;53.338;-1.502;2023-05-13T09:34:13;2.72;;;1.90;;
79145;SDS011;68792;53.338;-1.502;2023-05-13T09:39:05;2.85;;;1.45;;
79145;SDS011;68792;53.338;-1.502;2023-05-13T09:41:30;1.65;;;1.42;;
79145;SDS011;68792;53.338;-1.502;2023-05-13T09:43:56;2.40;;;1.60;;
79145;SDS011;68792;53.338;-1.502;2023-05-13T09:46:22;1.40;;;1.30;;
79145;SDS011;68792;53.338;-1.502;2023-05-13T09:48:49;1.60;;;1.20;;
79145;SDS011;68792;53.338;-1.502;2023-05-13T09:51:24;2.95;;;1.50;;
79145;SDS011;68792;53.338;-1.502;2023-05-13T09:53:51;1.50;;;1.40;;
79145;SDS011;68792;53.338;-1.502;2023-05-13T09:56:18;1.40;;;1.30;;
79145;SDS011;68792;53.338;-1.502;2023-05-13T09:58:49;1.40;;;1.30;;
79145;SDS011;68792;53.338;-1.502;2023-05-13T10:01:16;1.58;;;1.48;;
79145;SDS011;68792;53.338;-1.502;2023-05-13T10:03:42;2.20;;;1.60;;
79145;SDS011;68792;53.338;-1.502;2023-05-13T10:06:07;2.05;;;1.60;;
79145;SDS011;68792;53.338;-1.502;2023-05-13T10:08:33;1.40;;;1.30;;
79145;SDS011;68792;53.338;-1.502;2023-05-13T10:10:58;1.50;;;1.40;;
79145;SDS011;68792;53.338;-1.502;2023-05-13T10:13:24;1.58;;;1.48;;
79145;SDS011;68792;53.338;-1.502;2023-05-13T10:15:51;2.15;;;1.73;;
79145;SDS011;68792;53.338;-1.502;2023-05-13T10:18:19;2.67;;;1.50;;
79145;SDS011;68792;53.338;-1.502;2023-05-13T10:20:45;2.30;;;1.25;;
79145;SDS011;68792;53.338;-1.502;2023-05-13T10:23:11;1.80;;;1.70;;
79145;SDS011;68792;53.338;-1.502;2023-05-13T10:25:37;1.60;;;1.50;;
79145;SDS011;68792;53.338;-1.502;2023-05-13T10:28:03;2.35;;;1.70;;
79145;SDS011;68792;53.338;-1.502;2023-05-13T10:30:29;4.93;;;1.67;;
79145;SDS011;68792;53.338;-1.502;2023-05-13T10:32:56;10.93;;;2.33;;
79145;SDS011;68792;53.338;-1.502;2023-05-13T10:43:28;7.18;;;2.03;;
79145;SDS011;68792;53.338;-1.502;2023-05-13T10:46:04;8.27;;;2.22;;
79145;SDS011;68792;53.338;-1.502;2023-05-13T10:48:39;5.47;;;2.42;;
79145;SDS011;68792;53.338;-1.502;2023-05-13T10:51:07;10.13;;;2.20;;
79145;SDS011;68792;53.338;-1.502;2023-05-13T10:53:46;7.95;;;2.30;;
79145;SDS011;68792;53.338;-1.502;2023-05-13T10:56:13;7.05;;;2.75;;
79145;SDS011;68792;53.338;-1.502;2023-05-13T10:58:39;10.38;;;2.45;;
79145;SDS011;68792;53.338;-1.502;2023-05-13T11:01:11;10.15;;;2.38;;
79145;SDS011;68792;53.338;-1.502;2023-05-13T11:03:37;9.38;;;1.98;;
79145;SDS011;68792;53.338;-1.502;2023-05-13T11:06:18;11.45;;;2.75;;
79145;SDS011;68792;53.338;-1.502;2023-05-13T11:08:46;5.63;;;2.08;;
79145;SDS011;68792;53.338;-1.502;2023-05-13T11:14:04;5.32;;;3.17;;
79145;SDS011;68792;53.338;-1.502;2023-05-13T11:16:32;5.45;;;3.15;;
79145;SDS011;68792;53.338;-1.502;2023-05-13T11:19:00;5.80;;;3.30;;
79145;SDS011;68792;53.338;-1.502;2023-05-13T11:21:36;4.68;;;3.78;;
79145;SDS011;68792;53.338;-1.502;2023-05-13T11:24:04;3.92;;;3.17;;
79145;SDS011;68792;53.338;-1.502;2023-05-13T11:26:43;4.18;;;3.42;;
79145;SDS011;68792;53.338;-1.502;2023-05-13T11:29:12;4.55;;;3.20;;
79145;SDS011;68792;53.338;-1.502;2023-05-13T11:31:42;4.15;;;3.75;;
79145;SDS011;68792;53.338;-1.502;2023-05-13T11:34:17;3.45;;;3.15;;
79145;SDS011;68792;53.338;-1.502;2023-05-13T11:36:50;4.68;;;3.08;;
79145;SDS011;68792;53.338;-1.502;2023-05-13T11:39:20;6.82;;;3.45;;
79145;SDS011;68792;53.338;-1.502;2023-05-13T11:41:49;3.30;;;3.00;;
79145;SDS011;68792;53.338;-1.502;2023-05-13T11:44:25;4.30;;;3.20;;
79145;SDS011;68792;53.338;-1.502;2023-05-13T11:47:00;4.15;;;3.25;;
79145;SDS011;68792;53.338;-1.502;2023-05-13T11:52:10;4.38;;;2.75;;
79145;SDS011;68792;53.338;-1.502;2023-05-13T11:57:14;3.83;;;3.25;;
79145;SDS011;68792;53.338;-1.502;2023-05-13T11:59:40;4.72;;;2.90;;
79145;SDS011;68792;53.338;-1.502;2023-05-13T12:02:05;4.05;;;3.63;;
79145;SDS011;68792;53.338;-1.502;2023-05-13T12:04:31;3.17;;;2.88;;
79145;SDS011;68792;53.338;-1.502;2023-05-13T12:06:56;3.13;;;2.83;;
79145;SDS011;68792;53.338;-1.502;2023-05-13T12:09:22;3.13;;;2.75;;
79145;SDS011;68792;53.338;-1.502;2023-05-13T12:11:48;3.85;;;3.17;;
79145;SDS011;68792;53.338;-1.502;2023-05-13T12:14:17;3.78;;;2.70;;
79145;SDS011;68792;53.338;-1.502;2023-05-13T12:16:43;3.85;;;3.13;;
79145;SDS011;68792;53.338;-1.502;2023-05-13T12:19:09;3.58;;;2.75;;
79145;SDS011;68792;53.338;-1.502;2023-05-13T12:21:35;3.15;;;2.88;;
79145;SDS011;68792;53.338;-1.502;2023-05-13T12:24:02;3.30;;;2.80;;
79145;SDS011;68792;53.338;-1.502;2023-05-13T12:26:40;2.85;;;2.40;;
79145;SDS011;68792;53.338;-1.502;2023-05-13T12:29:06;4.38;;;2.67;;
79145;SDS011;68792;53.338;-1.502;2023-05-13T12:31:31;2.80;;;2.53;;
79145;SDS011;68792;53.338;-1.502;2023-05-13T12:33:57;3.58;;;2.63;;
79145;SDS011;68792;53.338;-1.502;2023-05-13T12:36:25;3.90;;;2.97;;
79145;SDS011;68792;53.338;-1.502;2023-05-13T12:41:29;2.92;;;2.35;;
79145;SDS011;68792;53.338;-1.502;2023-05-13T12:44:00;2.80;;;2.60;;
79145;SDS011;68792;53.338;-1.502;2023-05-13T12:46:26;5.53;;;2.78;;
79145;SDS011;68792;53.338;-1.502;2023-05-13T12:48:53;4.97;;;2.90;;
79145;SDS011;68792;53.338;-1.502;2023-05-13T12:51:20;4.25;;;3.00;;
79145;SDS011;68792;53.338;-1.502;2023-05-13T12:53:45;3.63;;;2.95;;
79145;SDS011;68792;53.338;-1.502;2023-05-13T12:56:11;3.35;;;3.05;;
79145;SDS011;68792;53.338;-1.502;2023-05-13T12:58:36;3.30;;;3.00;;
79145;SDS011;68792;53.338;-1.502;2023-05-13T13:01:01;3.63;;;3.33;;
79145;SDS011;68792;53.338;-1.502;2023-05-13T13:03:27;4.60;;;3.13;;
79145;SDS011;68792;53.338;-1.502;2023-05-13T13:05:52;5.05;;;3.53;;
79145;SDS011;68792;53.338;-1.502;2023-05-13T13:08:18;4.00;;;3.60;;
79145;SDS011;68792;53.338;-1.502;2023-05-13T13:10:43;4.93;;;3.40;;
79145;SDS011;68792;53.338;-1.502;2023-05-13T13:13:09;4.65;;;4.25;;
79145;SDS011;68792;53.338;-1.502;2023-05-13T13:15:34;4.50;;;4.10;;
79145;SDS011;68792;53.338;-1.502;2023-05-13T13:17:59;5.55;;;4.43;;
79145;SDS011;68792;53.338;-1.502;2023-05-13T13:20:25;5.97;;;4.20;;
79145;SDS011;68792;53.338;-1.502;2023-05-13T13:22:51;4.70;;;4.25;;
79145;SDS011;68792;53.338;-1.502;2023-05-13T13:25:18;4.57;;;3.97;;
79145;SDS011;68792;53.338;-1.502;2023-05-13T13:27:43;4.80;;;3.72;;
79145;SDS011;68792;53.338;-1.502;2023-05-13T13:30:09;4.70;;;3.83;;
79145;SDS011;68792;53.338;-1.502;2023-05-13T13:32:35;4.72;;;3.67;;
79145;SDS011;68792;53.338;-1.502;2023-05-13T13:35:00;4.55;;;3.78;;
79145;SDS011;68792;53.338;-1.502;2023-05-13T13:37:27;4.43;;;3.40;;
79145;SDS011;68792;53.338;-1.502;2023-05-13T13:39:53;3.70;;;3.40;;
79145;SDS011;68792;53.338;-1.502;2023-05-13T13:42:19;4.03;;;3.63;;
79145;SDS011;68792;53.338;-1.502;2023-05-13T13:44:44;5.35;;;3.75;;
79145;SDS011;68792;53.338;-1.502;2023-05-13T13:47:10;4.22;;;3.83;;
79145;SDS011;68792;53.338;-1.502;2023-05-13T13:49:35;4.00;;;3.28;;
79145;SDS011;68792;53.338;-1.502;2023-05-13T13:52:01;8.43;;;3.72;;
79145;SDS011;68792;53.338;-1.502;2023-05-13T13:54:26;4.35;;;3.40;;
79145;SDS011;68792;53.338;-1.502;2023-05-13T13:56:51;4.13;;;3.72;;
79145;SDS011;68792;53.338;-1.502;2023-05-13T13:59:17;4.97;;;3.45;;
79145;SDS011;68792;53.338;-1.502;2023-05-13T14:01:43;3.88;;;3.25;;
79145;SDS011;68792;53.338;-1.502;2023-05-13T14:04:16;4.75;;;3.40;;
79145;SDS011;68792;53.338;-1.502;2023-05-13T14:06:44;5.32;;;3.67;;
79145;SDS011;68792;53.338;-1.502;2023-05-13T14:09:10;4.28;;;3.03;;
79145;SDS011;68792;53.338;-1.502;2023-05-13T14:11:35;4.53;;;3.67;;
79145;SDS011;68792;53.338;-1.502;2023-05-13T14:14:01;4.38;;;3.63;;
79145;SDS011;68792;53.338;-1.502;2023-05-13T14:16:26;4.43;;;3.88;;
79145;SDS011;68792;53.338;-1.502;2023-05-13T14:18:52;5.00;;;3.80;;
79145;SDS011;68792;53.338;-1.502;2023-05-13T14:21:17;4.53;;;3.30;;
79145;SDS011;68792;53.338;-1.502;2023-05-13T14:23:43;4.82;;;3.53;;
79145;SDS011;68792;53.338;-1.502;2023-05-13T14:26:08;4.93;;;4.28;;
79145;SDS011;68792;53.338;-1.502;2023-05-13T14:28:35;5.25;;;3.97;;
79145;SDS011;68792;53.338;-1.502;2023-05-13T14:31:01;3.70;;;3.35;;
79145;SDS011;68792;53.338;-1.502;2023-05-13T14:33:26;3.85;;;3.50;;
79145;SDS011;68792;53.338;-1.502;2023-05-13T14:35:52;6.80;;;3.40;;
79145;SDS011;68792;53.338;-1.502;2023-05-13T14:38:17;4.35;;;3.03;;
79145;SDS011;68792;53.338;-1.502;2023-05-13T14:40:43;5.03;;;2.85;;
79145;SDS011;68792;53.338;-1.502;2023-05-13T14:43:08;5.03;;;3.10;;
79145;SDS011;68792;53.338;-1.502;2023-05-13T14:45:34;3.20;;;2.80;;
79145;SDS011;68792;53.338;-1.502;2023-05-13T14:48:00;4.07;;;3.13;;
79145;SDS011;68792;53.338;-1.502;2023-05-13T14:50:25;4.72;;;3.13;;
79145;SDS011;68792;53.338;-1.502;2023-05-13T14:52:51;4.07;;;2.50;;
79145;SDS011;68792;53.338;-1.502;2023-05-13T14:55:16;3.58;;;2.65;;
79145;SDS011;68792;53.338;-1.502;2023-05-13T14:57:42;3.08;;;2.38;;
79145;SDS011;68792;53.338;-1.502;2023-05-13T15:00:07;2.58;;;2.38;;
79145;SDS011;68792;53.338;-1.502;2023-05-13T15:02:33;3.42;;;2.58;;
79145;SDS011;68792;53.338;-1.502;2023-05-13T15:04:59;4.32;;;2.80;;
79145;SDS011;68792;53.338;-1.502;2023-05-13T15:07:25;4.15;;;2.40;;
79145;SDS011;68792;53.338;-1.502;2023-05-13T15:09:50;3.30;;;2.10;;
79145;SDS011;68792;53.338;-1.502;2023-05-13T15:12:15;4.43;;;2.30;;
79145;SDS011;68792;53.338;-1.502;2023-05-13T15:14:41;2.75;;;2.50;;
79145;SDS011;68792;53.338;-1.502;2023-05-13T15:17:06;5.03;;;2.50;;